sensor_id;sensor_type;location;lat;lon;timestamp;P1;durP1;ratioP1;P2;durP2;ratioP2
44434;SDS011;30138;20.964;105.830;2023-04-06T00:04:59;102.13;;;64.10;;
44434;SDS011;30138;20.964;105.830;2023-04-06T00:10:06;105.18;;;65.75;;
44434;SDS011;30138;20.964;105.830;2023-04-06T00:15:14;104.82;;;66.50;;
44434;SDS011;30138;20.964;105.830;2023-04-06T00:20:22;104.53;;;64.47;;
44434;SDS011;30138;20.964;105.830;2023-04-06T00:25:29;105.32;;;63.88;;
44434;SDS011;30138;20.964;105.830;2023-04-06T00:30:36;99.25;;;63.45;;
44434;SDS011;30138;20.964;105.830;2023-04-06T00:35:45;101.57;;;63.65;;
44434;SDS011;30138;20.964;105.830;2023-04-06T00:40:52;101.50;;;63.25;;
44434;SDS011;30138;20.964;105.830;2023-04-06T00:45:59;104.78;;;64.22;;
44434;SDS011;30138;20.964;105.830;2023-04-06T00:51:07;95.28;;;61.00;;
44434;SDS011;30138;20.964;105.830;2023-04-06T00:56:14;105.07;;;63.13;;
44434;SDS011;30138;20.964;105.830;2023-04-06T01:01:25;101.78;;;62.30;;
44434;SDS011;30138;20.964;105.830;2023-04-06T01:06:46;97.78;;;60.97;;
44434;SDS011;30138;20.964;105.830;2023-04-06T01:11:58;111.15;;;63.53;;
44434;SDS011;30138;20.964;105.830;2023-04-06T01:17:06;94.32;;;57.05;;
44434;SDS011;30138;20.964;105.830;2023-04-06T01:22:17;103.35;;;61.35;;
44434;SDS011;30138;20.964;105.830;2023-04-06T01:27:33;102.43;;;60.80;;
44434;SDS011;30138;20.964;105.830;2023-04-06T01:33:06;113.45;;;66.25;;
44434;SDS011;30138;20.964;105.830;2023-04-06T01:38:36;110.03;;;67.25;;
44434;SDS011;30138;20.964;105.830;2023-04-06T01:43:44;122.83;;;71.47;;
44434;SDS011;30138;20.964;105.830;2023-04-06T01:48:59;121.28;;;71.03;;
44434;SDS011;30138;20.964;105.830;2023-04-06T01:54:13;119.38;;;72.80;;
44434;SDS011;30138;20.964;105.830;2023-04-06T01:59:38;120.55;;;73.22;;
44434;SDS011;30138;20.964;105.830;2023-04-06T02:04:54;124.82;;;76.90;;
44434;SDS011;30138;20.964;105.830;2023-04-06T02:10:04;111.68;;;72.57;;
44434;SDS011;30138;20.964;105.830;2023-04-06T02:15:19;119.47;;;74.75;;
44434;SDS011;30138;20.964;105.830;2023-04-06T02:20:27;124.68;;;77.07;;
44434;SDS011;30138;20.964;105.830;2023-04-06T02:25:36;116.97;;;75.85;;
44434;SDS011;30138;20.964;105.830;2023-04-06T02:30:46;126.32;;;77.10;;
44434;SDS011;30138;20.964;105.830;2023-04-06T02:35:58;124.57;;;78.18;;
44434;SDS011;30138;20.964;105.830;2023-04-06T02:41:08;125.80;;;79.85;;
44434;SDS011;30138;20.964;105.830;2023-04-06T02:46:15;131.40;;;80.22;;
44434;SDS011;30138;20.964;105.830;2023-04-06T02:51:22;127.97;;;81.95;;
44434;SDS011;30138;20.964;105.830;2023-04-06T02:56:40;131.60;;;84.68;;
44434;SDS011;30138;20.964;105.830;2023-04-06T03:01:48;128.02;;;86.50;;
44434;SDS011;30138;20.964;105.830;2023-04-06T03:06:56;135.40;;;86.43;;
44434;SDS011;30138;20.964;105.830;2023-04-06T03:12:14;138.57;;;87.00;;
44434;SDS011;30138;20.964;105.830;2023-04-06T03:17:48;132.52;;;90.75;;
44434;SDS011;30138;20.964;105.830;2023-04-06T03:23:15;135.93;;;92.60;;
44434;SDS011;30138;20.964;105.830;2023-04-06T03:28:28;146.13;;;95.93;;
44434;SDS011;30138;20.964;105.830;2023-04-06T03:33:39;150.57;;;99.97;;
44434;SDS011;30138;20.964;105.830;2023-04-06T03:38:53;168.93;;;108.38;;
44434;SDS011;30138;20.964;105.830;2023-04-06T03:44:03;165.23;;;114.03;;
44434;SDS011;30138;20.964;105.830;2023-04-06T03:49:11;158.25;;;107.93;;
44434;SDS011;30138;20.964;105.830;2023-04-06T03:54:22;185.05;;;118.38;;
44434;SDS011;30138;20.964;105.830;2023-04-06T03:59:31;186.73;;;123.25;;
44434;SDS011;30138;20.964;105.830;2023-04-06T04:04:43;183.07;;;123.60;;
44434;SDS011;30138;20.964;105.830;2023-04-06T04:09:51;186.23;;;125.32;;
44434;SDS011;30138;20.964;105.830;2023-04-06T04:15:00;180.85;;;123.82;;
44434;SDS011;30138;20.964;105.830;2023-04-06T04:20:08;198.85;;;130.60;;
44434;SDS011;30138;20.964;105.830;2023-04-06T04:25:15;189.85;;;128.80;;
44434;SDS011;30138;20.964;105.830;2023-04-06T04:30:26;198.93;;;133.20;;
44434;SDS011;30138;20.964;105.830;2023-04-06T04:35:33;197.63;;;131.88;;
44434;SDS011;30138;20.964;105.830;2023-04-06T04:40:41;201.10;;;137.63;;
44434;SDS011;30138;20.964;105.830;2023-04-06T04:45:49;200.60;;;138.65;;
44434;SDS011;30138;20.964;105.830;2023-04-06T04:51:08;204.30;;;142.70;;
44434;SDS011;30138;20.964;105.830;2023-04-06T04:56:38;215.07;;;141.80;;
44434;SDS011;30138;20.964;105.830;2023-04-06T05:02:07;233.90;;;153.13;;
44434;SDS011;30138;20.964;105.830;2023-04-06T05:07:25;245.80;;;162.27;;
44434;SDS011;30138;20.964;105.830;2023-04-06T05:12:36;243.23;;;163.98;;
44434;SDS011;30138;20.964;105.830;2023-04-06T05:17:47;243.27;;;163.65;;
44434;SDS011;30138;20.964;105.830;2023-04-06T05:23:01;240.68;;;166.07;;
44434;SDS011;30138;20.964;105.830;2023-04-06T05:28:09;237.43;;;163.23;;
44434;SDS011;30138;20.964;105.830;2023-04-06T05:33:20;230.02;;;156.68;;
44434;SDS011;30138;20.964;105.830;2023-04-06T05:38:37;221.30;;;158.73;;
44434;SDS011;30138;20.964;105.830;2023-04-06T05:43:58;231.63;;;160.33;;
44434;SDS011;30138;20.964;105.830;2023-04-06T05:49:10;233.73;;;164.10;;
44434;SDS011;30138;20.964;105.830;2023-04-06T05:54:17;232.60;;;161.00;;
44434;SDS011;30138;20.964;105.830;2023-04-06T05:59:29;225.02;;;160.35;;
44434;SDS011;30138;20.964;105.830;2023-04-06T06:04:39;230.88;;;159.13;;
44434;SDS011;30138;20.964;105.830;2023-04-06T06:09:50;221.25;;;153.55;;
44434;SDS011;30138;20.964;105.830;2023-04-06T06:15:02;217.70;;;151.10;;
44434;SDS011;30138;20.964;105.830;2023-04-06T06:20:19;213.55;;;151.98;;
44434;SDS011;30138;20.964;105.830;2023-04-06T06:25:28;213.07;;;151.10;;
44434;SDS011;30138;20.964;105.830;2023-04-06T06:30:38;205.80;;;148.27;;
44434;SDS011;30138;20.964;105.830;2023-04-06T06:35:50;204.82;;;148.07;;
44434;SDS011;30138;20.964;105.830;2023-04-06T06:40:57;197.65;;;143.75;;
44434;SDS011;30138;20.964;105.830;2023-04-06T06:46:08;192.37;;;142.33;;
44434;SDS011;30138;20.964;105.830;2023-04-06T06:51:18;203.45;;;146.10;;
44434;SDS011;30138;20.964;105.830;2023-04-06T06:56:25;198.55;;;143.90;;
44434;SDS011;30138;20.964;105.830;2023-04-06T07:01:33;200.77;;;145.35;;
44434;SDS011;30138;20.964;105.830;2023-04-06T07:06:42;195.48;;;142.88;;
44434;SDS011;30138;20.964;105.830;2023-04-06T07:11:50;194.32;;;142.10;;
44434;SDS011;30138;20.964;105.830;2023-04-06T07:16:58;197.23;;;140.27;;
44434;SDS011;30138;20.964;105.830;2023-04-06T07:22:08;201.27;;;145.77;;
44434;SDS011;30138;20.964;105.830;2023-04-06T07:27:16;198.80;;;141.25;;
44434;SDS011;30138;20.964;105.830;2023-04-06T07:32:23;196.50;;;145.43;;
44434;SDS011;30138;20.964;105.830;2023-04-06T07:37:32;199.10;;;140.40;;
44434;SDS011;30138;20.964;105.830;2023-04-06T07:42:39;189.70;;;135.15;;
44434;SDS011;30138;20.964;105.830;2023-04-06T07:47:47;188.27;;;134.45;;
44434;SDS011;30138;20.964;105.830;2023-04-06T07:52:56;195.35;;;137.05;;
44434;SDS011;30138;20.964;105.830;2023-04-06T07:58:05;191.30;;;133.55;;
44434;SDS011;30138;20.964;105.830;2023-04-06T08:03:12;194.48;;;133.52;;
44434;SDS011;30138;20.964;105.830;2023-04-06T08:08:24;187.48;;;132.82;;
44434;SDS011;30138;20.964;105.830;2023-04-06T08:13:30;192.05;;;132.38;;
44434;SDS011;30138;20.964;105.830;2023-04-06T08:18:38;199.93;;;135.00;;
44434;SDS011;30138;20.964;105.830;2023-04-06T08:23:47;187.40;;;131.75;;
44434;SDS011;30138;20.964;105.830;2023-04-06T08:28:54;189.80;;;131.30;;
44434;SDS011;30138;20.964;105.830;2023-04-06T08:34:03;182.52;;;127.05;;
44434;SDS011;30138;20.964;105.830;2023-04-06T08:39:12;174.18;;;123.22;;
44434;SDS011;30138;20.964;105.830;2023-04-06T08:44:26;183.50;;;120.88;;
44434;SDS011;30138;20.964;105.830;2023-04-06T08:49:34;172.80;;;119.45;;
44434;SDS011;30138;20.964;105.830;2023-04-06T08:54:44;165.85;;;116.60;;
44434;SDS011;30138;20.964;105.830;2023-04-06T08:59:53;170.52;;;112.63;;
44434;SDS011;30138;20.964;105.830;2023-04-06T09:05:19;161.60;;;112.10;;
44434;SDS011;30138;20.964;105.830;2023-04-06T09:10:41;159.40;;;108.63;;
44434;SDS011;30138;20.964;105.830;2023-04-06T09:16:23;153.65;;;106.20;;
44434;SDS011;30138;20.964;105.830;2023-04-06T09:21:33;152.27;;;102.20;;
44434;SDS011;30138;20.964;105.830;2023-04-06T09:26:48;141.00;;;99.07;;
44434;SDS011;30138;20.964;105.830;2023-04-06T09:32:03;145.48;;;99.75;;
44434;SDS011;30138;20.964;105.830;2023-04-06T09:37:12;141.52;;;98.80;;
44434;SDS011;30138;20.964;105.830;2023-04-06T09:42:25;146.77;;;97.72;;
44434;SDS011;30138;20.964;105.830;2023-04-06T09:47:32;146.27;;;96.47;;
44434;SDS011;30138;20.964;105.830;2023-04-06T09:52:42;138.50;;;91.57;;
44434;SDS011;30138;20.964;105.830;2023-04-06T09:57:57;126.82;;;90.82;;
44434;SDS011;30138;20.964;105.830;2023-04-06T10:03:11;130.55;;;87.18;;
44434;SDS011;30138;20.964;105.830;2023-04-06T10:08:28;132.25;;;85.90;;
44434;SDS011;30138;20.964;105.830;2023-04-06T10:13:40;121.45;;;82.57;;
44434;SDS011;30138;20.964;105.830;2023-04-06T10:18:50;123.57;;;82.93;;
44434;SDS011;30138;20.964;105.830;2023-04-06T10:24:06;122.85;;;84.45;;
44434;SDS011;30138;20.964;105.830;2023-04-06T10:29:18;124.15;;;83.00;;
44434;SDS011;30138;20.964;105.830;2023-04-06T10:34:34;122.75;;;81.15;;
44434;SDS011;30138;20.964;105.830;2023-04-06T10:39:47;115.60;;;76.70;;
44434;SDS011;30138;20.964;105.830;2023-04-06T10:45:01;114.55;;;75.30;;
44434;SDS011;30138;20.964;105.830;2023-04-06T10:50:24;109.20;;;73.75;;
44434;SDS011;30138;20.964;105.830;2023-04-06T10:55:31;110.15;;;73.07;;
44434;SDS011;30138;20.964;105.830;2023-04-06T11:00:45;116.75;;;73.53;;
44434;SDS011;30138;20.964;105.830;2023-04-06T11:05:53;107.75;;;70.43;;
44434;SDS011;30138;20.964;105.830;2023-04-06T11:11:06;100.22;;;65.22;;
44434;SDS011;30138;20.964;105.830;2023-04-06T11:16:19;94.70;;;60.30;;
44434;SDS011;30138;20.964;105.830;2023-04-06T11:21:33;92.90;;;57.70;;
44434;SDS011;30138;20.964;105.830;2023-04-06T11:26:41;93.00;;;57.08;;
44434;SDS011;30138;20.964;105.830;2023-04-06T11:31:52;105.00;;;64.95;;
44434;SDS011;30138;20.964;105.830;2023-04-06T11:37:03;120.78;;;72.82;;
44434;SDS011;30138;20.964;105.830;2023-04-06T11:42:20;111.57;;;67.63;;
44434;SDS011;30138;20.964;105.830;2023-04-06T11:47:30;110.05;;;61.65;;
44434;SDS011;30138;20.964;105.830;2023-04-06T11:52:41;110.70;;;59.83;;
44434;SDS011;30138;20.964;105.830;2023-04-06T11:57:47;107.95;;;59.97;;
44434;SDS011;30138;20.964;105.830;2023-04-06T12:02:56;106.97;;;59.35;;
44434;SDS011;30138;20.964;105.830;2023-04-06T12:08:03;107.78;;;58.67;;
44434;SDS011;30138;20.964;105.830;2023-04-06T12:13:11;96.80;;;57.40;;
44434;SDS011;30138;20.964;105.830;2023-04-06T12:18:20;95.90;;;57.83;;
44434;SDS011;30138;20.964;105.830;2023-04-06T12:23:28;96.07;;;56.60;;
44434;SDS011;30138;20.964;105.830;2023-04-06T12:28:36;93.90;;;59.97;;
44434;SDS011;30138;20.964;105.830;2023-04-06T12:33:45;90.50;;;54.90;;
44434;SDS011;30138;20.964;105.830;2023-04-06T12:38:55;88.65;;;53.33;;
44434;SDS011;30138;20.964;105.830;2023-04-06T12:44:02;93.65;;;55.97;;
44434;SDS011;30138;20.964;105.830;2023-04-06T12:49:11;90.20;;;56.05;;
44434;SDS011;30138;20.964;105.830;2023-04-06T12:54:19;99.07;;;60.50;;
44434;SDS011;30138;20.964;105.830;2023-04-06T12:59:28;110.28;;;62.38;;
44434;SDS011;30138;20.964;105.830;2023-04-06T13:04:38;108.68;;;62.70;;
44434;SDS011;30138;20.964;105.830;2023-04-06T13:09:46;109.68;;;65.45;;
44434;SDS011;30138;20.964;105.830;2023-04-06T13:14:53;99.47;;;64.43;;
44434;SDS011;30138;20.964;105.830;2023-04-06T13:20:04;119.15;;;63.20;;
44434;SDS011;30138;20.964;105.830;2023-04-06T13:25:12;106.40;;;65.95;;
44434;SDS011;30138;20.964;105.830;2023-04-06T13:30:24;111.95;;;64.57;;
44434;SDS011;30138;20.964;105.830;2023-04-06T13:35:33;100.43;;;64.72;;
44434;SDS011;30138;20.964;105.830;2023-04-06T13:40:41;117.53;;;71.18;;
44434;SDS011;30138;20.964;105.830;2023-04-06T13:45:50;126.65;;;78.28;;
44434;SDS011;30138;20.964;105.830;2023-04-06T13:51:09;141.93;;;84.35;;
44434;SDS011;30138;20.964;105.830;2023-04-06T13:56:18;128.30;;;79.00;;
44434;SDS011;30138;20.964;105.830;2023-04-06T14:01:29;141.43;;;85.00;;
44434;SDS011;30138;20.964;105.830;2023-04-06T14:06:44;154.02;;;85.45;;
44434;SDS011;30138;20.964;105.830;2023-04-06T14:11:51;155.70;;;86.93;;
44434;SDS011;30138;20.964;105.830;2023-04-06T14:16:58;151.73;;;84.00;;
44434;SDS011;30138;20.964;105.830;2023-04-06T14:22:17;145.13;;;80.70;;
44434;SDS011;30138;20.964;105.830;2023-04-06T14:27:23;151.32;;;79.60;;
44434;SDS011;30138;20.964;105.830;2023-04-06T14:32:30;145.40;;;78.53;;
44434;SDS011;30138;20.964;105.830;2023-04-06T14:37:39;143.85;;;78.35;;
44434;SDS011;30138;20.964;105.830;2023-04-06T14:42:50;153.73;;;78.45;;
44434;SDS011;30138;20.964;105.830;2023-04-06T14:47:58;152.70;;;81.82;;
44434;SDS011;30138;20.964;105.830;2023-04-06T14:53:09;152.02;;;79.07;;
44434;SDS011;30138;20.964;105.830;2023-04-06T14:58:16;175.25;;;78.15;;
44434;SDS011;30138;20.964;105.830;2023-04-06T15:03:23;144.35;;;77.60;;
44434;SDS011;30138;20.964;105.830;2023-04-06T15:08:36;144.63;;;77.93;;
44434;SDS011;30138;20.964;105.830;2023-04-06T15:13:44;135.77;;;75.30;;
44434;SDS011;30138;20.964;105.830;2023-04-06T15:18:52;132.73;;;72.57;;
44434;SDS011;30138;20.964;105.830;2023-04-06T15:24:01;130.77;;;72.47;;
44434;SDS011;30138;20.964;105.830;2023-04-06T15:29:10;129.05;;;72.32;;
44434;SDS011;30138;20.964;105.830;2023-04-06T15:34:17;130.32;;;70.10;;
44434;SDS011;30138;20.964;105.830;2023-04-06T15:39:26;128.88;;;70.82;;
44434;SDS011;30138;20.964;105.830;2023-04-06T15:44:35;127.03;;;70.55;;
44434;SDS011;30138;20.964;105.830;2023-04-06T15:49:42;128.05;;;68.95;;
44434;SDS011;30138;20.964;105.830;2023-04-06T15:54:50;129.88;;;71.80;;
44434;SDS011;30138;20.964;105.830;2023-04-06T15:59:58;123.97;;;70.53;;
44434;SDS011;30138;20.964;105.830;2023-04-06T16:05:10;131.77;;;72.18;;
44434;SDS011;30138;20.964;105.830;2023-04-06T16:10:20;135.63;;;74.20;;
44434;SDS011;30138;20.964;105.830;2023-04-06T16:15:27;140.05;;;75.38;;
44434;SDS011;30138;20.964;105.830;2023-04-06T16:20:35;140.35;;;74.80;;
44434;SDS011;30138;20.964;105.830;2023-04-06T16:25:44;144.88;;;76.30;;
44434;SDS011;30138;20.964;105.830;2023-04-06T16:30:51;132.80;;;75.07;;
44434;SDS011;30138;20.964;105.830;2023-04-06T16:35:59;137.80;;;73.85;;
44434;SDS011;30138;20.964;105.830;2023-04-06T16:41:07;142.18;;;74.70;;
44434;SDS011;30138;20.964;105.830;2023-04-06T16:46:16;136.07;;;75.60;;
44434;SDS011;30138;20.964;105.830;2023-04-06T16:51:25;141.43;;;75.22;;
44434;SDS011;30138;20.964;105.830;2023-04-06T16:56:34;134.95;;;72.82;;
44434;SDS011;30138;20.964;105.830;2023-04-06T17:01:41;131.38;;;71.53;;
44434;SDS011;30138;20.964;105.830;2023-04-06T17:06:49;135.48;;;73.32;;
44434;SDS011;30138;20.964;105.830;2023-04-06T17:11:58;137.32;;;75.03;;
44434;SDS011;30138;20.964;105.830;2023-04-06T17:17:05;144.45;;;73.05;;
44434;SDS011;30138;20.964;105.830;2023-04-06T17:22:12;144.48;;;72.93;;
44434;SDS011;30138;20.964;105.830;2023-04-06T17:27:23;133.05;;;73.95;;
44434;SDS011;30138;20.964;105.830;2023-04-06T17:32:30;146.75;;;75.25;;
44434;SDS011;30138;20.964;105.830;2023-04-06T17:37:38;135.75;;;75.07;;
44434;SDS011;30138;20.964;105.830;2023-04-06T17:42:48;144.25;;;77.75;;
44434;SDS011;30138;20.964;105.830;2023-04-06T17:47:55;136.57;;;75.07;;
44434;SDS011;30138;20.964;105.830;2023-04-06T17:53:03;147.93;;;79.07;;
44434;SDS011;30138;20.964;105.830;2023-04-06T17:58:11;140.82;;;79.13;;
44434;SDS011;30138;20.964;105.830;2023-04-06T18:03:19;146.90;;;80.38;;
44434;SDS011;30138;20.964;105.830;2023-04-06T18:08:26;138.65;;;78.18;;
44434;SDS011;30138;20.964;105.830;2023-04-06T18:13:37;154.20;;;81.00;;
44434;SDS011;30138;20.964;105.830;2023-04-06T18:18:44;144.50;;;78.57;;
44434;SDS011;30138;20.964;105.830;2023-04-06T18:23:51;154.30;;;81.57;;
44434;SDS011;30138;20.964;105.830;2023-04-06T18:29:01;146.20;;;80.18;;
44434;SDS011;30138;20.964;105.830;2023-04-06T18:34:09;150.13;;;78.13;;
44434;SDS011;30138;20.964;105.830;2023-04-06T18:39:16;137.73;;;75.90;;
44434;SDS011;30138;20.964;105.830;2023-04-06T18:44:25;127.78;;;69.05;;
44434;SDS011;30138;20.964;105.830;2023-04-06T18:49:33;110.82;;;60.55;;
44434;SDS011;30138;20.964;105.830;2023-04-06T18:54:40;90.75;;;52.40;;
44434;SDS011;30138;20.964;105.830;2023-04-06T18:59:48;79.78;;;48.25;;
44434;SDS011;30138;20.964;105.830;2023-04-06T19:04:55;75.60;;;44.83;;
44434;SDS011;30138;20.964;105.830;2023-04-06T19:10:02;76.88;;;42.80;;
44434;SDS011;30138;20.964;105.830;2023-04-06T19:15:12;73.15;;;41.78;;
44434;SDS011;30138;20.964;105.830;2023-04-06T19:20:19;70.88;;;40.90;;
44434;SDS011;30138;20.964;105.830;2023-04-06T19:25:34;68.72;;;38.60;;
44434;SDS011;30138;20.964;105.830;2023-04-06T19:31:03;57.85;;;36.63;;
44434;SDS011;30138;20.964;105.830;2023-04-06T19:36:10;62.65;;;36.80;;
44434;SDS011;30138;20.964;105.830;2023-04-06T19:41:17;59.95;;;35.75;;
44434;SDS011;30138;20.964;105.830;2023-04-06T19:46:26;56.25;;;35.25;;
44434;SDS011;30138;20.964;105.830;2023-04-06T19:51:33;67.25;;;35.25;;
44434;SDS011;30138;20.964;105.830;2023-04-06T19:56:41;57.25;;;34.05;;
44434;SDS011;30138;20.964;105.830;2023-04-06T20:01:50;56.03;;;32.10;;
44434;SDS011;30138;20.964;105.830;2023-04-06T20:07:02;53.58;;;32.08;;
44434;SDS011;30138;20.964;105.830;2023-04-06T20:12:08;51.33;;;30.80;;
44434;SDS011;30138;20.964;105.830;2023-04-06T20:17:17;49.50;;;30.95;;
44434;SDS011;30138;20.964;105.830;2023-04-06T20:22:24;51.42;;;31.55;;
44434;SDS011;30138;20.964;105.830;2023-04-06T20:27:32;52.15;;;31.48;;
44434;SDS011;30138;20.964;105.830;2023-04-06T20:32:40;57.40;;;32.50;;
44434;SDS011;30138;20.964;105.830;2023-04-06T20:37:47;52.03;;;32.00;;
44434;SDS011;30138;20.964;105.830;2023-04-06T20:42:53;51.53;;;29.55;;
44434;SDS011;30138;20.964;105.830;2023-04-06T20:48:02;47.65;;;29.60;;
44434;SDS011;30138;20.964;105.830;2023-04-06T20:53:08;49.83;;;29.95;;
44434;SDS011;30138;20.964;105.830;2023-04-06T20:58:15;52.45;;;30.08;;
44434;SDS011;30138;20.964;105.830;2023-04-06T21:03:24;49.45;;;29.98;;
44434;SDS011;30138;20.964;105.830;2023-04-06T21:08:31;47.90;;;29.13;;
44434;SDS011;30138;20.964;105.830;2023-04-06T21:13:38;47.92;;;28.25;;
44434;SDS011;30138;20.964;105.830;2023-04-06T21:18:46;50.08;;;29.77;;
44434;SDS011;30138;20.964;105.830;2023-04-06T21:23:53;47.45;;;29.02;;
44434;SDS011;30138;20.964;105.830;2023-04-06T21:29:00;45.17;;;28.95;;
44434;SDS011;30138;20.964;105.830;2023-04-06T21:34:11;50.60;;;29.85;;
44434;SDS011;30138;20.964;105.830;2023-04-06T21:39:18;51.60;;;28.17;;
44434;SDS011;30138;20.964;105.830;2023-04-06T21:44:26;46.08;;;27.80;;
44434;SDS011;30138;20.964;105.830;2023-04-06T21:49:34;47.55;;;27.63;;
44434;SDS011;30138;20.964;105.830;2023-04-06T21:54:41;52.25;;;29.45;;
44434;SDS011;30138;20.964;105.830;2023-04-06T21:59:47;48.83;;;28.85;;
44434;SDS011;30138;20.964;105.830;2023-04-06T22:04:56;52.13;;;29.65;;
44434;SDS011;30138;20.964;105.830;2023-04-06T22:10:03;50.00;;;29.65;;
44434;SDS011;30138;20.964;105.830;2023-04-06T22:15:11;50.15;;;29.05;;
44434;SDS011;30138;20.964;105.830;2023-04-06T22:20:19;53.97;;;29.67;;
44434;SDS011;30138;20.964;105.830;2023-04-06T22:25:26;53.60;;;29.73;;
44434;SDS011;30138;20.964;105.830;2023-04-06T22:30:33;44.60;;;28.90;;
44434;SDS011;30138;20.964;105.830;2023-04-06T22:35:41;56.10;;;29.40;;
44434;SDS011;30138;20.964;105.830;2023-04-06T22:40:48;56.95;;;31.70;;
44434;SDS011;30138;20.964;105.830;2023-04-06T22:45:54;55.03;;;30.73;;
44434;SDS011;30138;20.964;105.830;2023-04-06T22:51:03;62.53;;;31.20;;
44434;SDS011;30138;20.964;105.830;2023-04-06T22:56:10;52.17;;;29.77;;
44434;SDS011;30138;20.964;105.830;2023-04-06T23:01:17;46.67;;;28.27;;
44434;SDS011;30138;20.964;105.830;2023-04-06T23:06:26;51.70;;;25.92;;
44434;SDS011;30138;20.964;105.830;2023-04-06T23:11:33;50.78;;;27.58;;
44434;SDS011;30138;20.964;105.830;2023-04-06T23:16:40;44.88;;;26.08;;
44434;SDS011;30138;20.964;105.830;2023-04-06T23:21:48;46.55;;;25.27;;
44434;SDS011;30138;20.964;105.830;2023-04-06T23:26:56;41.80;;;24.38;;
44434;SDS011;30138;20.964;105.830;2023-04-06T23:32:03;38.85;;;24.30;;
44434;SDS011;30138;20.964;105.830;2023-04-06T23:37:11;41.35;;;24.40;;
44434;SDS011;30138;20.964;105.830;2023-04-06T23:42:20;40.67;;;23.43;;
44434;SDS011;30138;20.964;105.830;2023-04-06T23:47:27;43.65;;;24.33;;
44434;SDS011;30138;20.964;105.830;2023-04-06T23:52:37;47.35;;;24.38;;
44434;SDS011;30138;20.964;105.830;2023-04-06T23:57:44;38.60;;;22.40;;
